sensor_id;sensor_type;location;lat;lon;timestamp;P1;durP1;ratioP1;P2;durP2;ratioP2
52508;SDS011;38420;53.150;6.370;2023-11-21T00:02:19;24.70;;;7.45;;
52508;SDS011;38420;53.150;6.370;2023-11-21T00:04:46;25.30;;;7.10;;
52508;SDS011;38420;53.150;6.370;2023-11-21T00:07:13;21.67;;;6.55;;
52508;SDS011;38420;53.150;6.370;2023-11-21T00:09:39;27.88;;;7.45;;
52508;SDS011;38420;53.150;6.370;2023-11-21T00:12:06;31.23;;;7.25;;
52508;SDS011;38420;53.150;6.370;2023-11-21T00:14:35;20.70;;;7.38;;
52508;SDS011;38420;53.150;6.370;2023-11-21T00:17:02;27.75;;;8.02;;
52508;SDS011;38420;53.150;6.370;2023-11-21T00:19:28;30.92;;;8.32;;
52508;SDS011;38420;53.150;6.370;2023-11-21T00:21:53;26.25;;;7.38;;
52508;SDS011;38420;53.150;6.370;2023-11-21T00:24:19;25.73;;;7.93;;
52508;SDS011;38420;53.150;6.370;2023-11-21T00:26:44;23.75;;;9.02;;
52508;SDS011;38420;53.150;6.370;2023-11-21T00:29:11;28.63;;;8.13;;
52508;SDS011;38420;53.150;6.370;2023-11-21T00:31:37;25.05;;;9.52;;
52508;SDS011;38420;53.150;6.370;2023-11-21T00:34:03;25.05;;;9.43;;
52508;SDS011;38420;53.150;6.370;2023-11-21T00:36:30;24.10;;;9.00;;
52508;SDS011;38420;53.150;6.370;2023-11-21T00:38:57;30.15;;;11.43;;
52508;SDS011;38420;53.150;6.370;2023-11-21T00:41:24;28.60;;;10.93;;
52508;SDS011;38420;53.150;6.370;2023-11-21T00:43:52;32.60;;;11.55;;
52508;SDS011;38420;53.150;6.370;2023-11-21T00:46:19;30.83;;;11.52;;
52508;SDS011;38420;53.150;6.370;2023-11-21T00:48:44;29.10;;;12.13;;
52508;SDS011;38420;53.150;6.370;2023-11-21T00:51:10;35.58;;;13.98;;
52508;SDS011;38420;53.150;6.370;2023-11-21T00:53:35;31.30;;;14.02;;
52508;SDS011;38420;53.150;6.370;2023-11-21T00:56:01;27.58;;;11.77;;
52508;SDS011;38420;53.150;6.370;2023-11-21T00:58:27;26.33;;;13.30;;
52508;SDS011;38420;53.150;6.370;2023-11-21T01:00:53;29.83;;;14.93;;
52508;SDS011;38420;53.150;6.370;2023-11-21T01:03:19;23.40;;;15.57;;
52508;SDS011;38420;53.150;6.370;2023-11-21T01:05:45;29.25;;;17.10;;
52508;SDS011;38420;53.150;6.370;2023-11-21T01:08:11;29.15;;;17.17;;
52508;SDS011;38420;53.150;6.370;2023-11-21T01:10:37;29.25;;;17.27;;
52508;SDS011;38420;53.150;6.370;2023-11-21T01:13:03;27.15;;;18.00;;
52508;SDS011;38420;53.150;6.370;2023-11-21T01:15:32;29.63;;;18.50;;
52508;SDS011;38420;53.150;6.370;2023-11-21T01:18:01;38.65;;;21.00;;
52508;SDS011;38420;53.150;6.370;2023-11-21T01:20:27;24.60;;;20.83;;
52508;SDS011;38420;53.150;6.370;2023-11-21T01:22:52;26.60;;;23.48;;
52508;SDS011;38420;53.150;6.370;2023-11-21T01:25:19;37.58;;;25.58;;
52508;SDS011;38420;53.150;6.370;2023-11-21T01:27:46;39.35;;;26.70;;
52508;SDS011;38420;53.150;6.370;2023-11-21T01:30:11;31.05;;;25.13;;
52508;SDS011;38420;53.150;6.370;2023-11-21T01:32:37;36.42;;;27.88;;
52508;SDS011;38420;53.150;6.370;2023-11-21T01:35:04;31.95;;;28.73;;
52508;SDS011;38420;53.150;6.370;2023-11-21T01:37:31;35.00;;;30.67;;
52508;SDS011;38420;53.150;6.370;2023-11-21T01:39:58;37.25;;;33.33;;
52508;SDS011;38420;53.150;6.370;2023-11-21T01:42:24;42.17;;;36.25;;
52508;SDS011;38420;53.150;6.370;2023-11-21T01:44:50;52.65;;;37.38;;
52508;SDS011;38420;53.150;6.370;2023-11-21T01:47:15;42.25;;;38.05;;
52508;SDS011;38420;53.150;6.370;2023-11-21T01:49:45;43.65;;;39.20;;
52508;SDS011;38420;53.150;6.370;2023-11-21T01:52:11;45.95;;;41.47;;
52508;SDS011;38420;53.150;6.370;2023-11-21T01:54:37;45.17;;;41.25;;
52508;SDS011;38420;53.150;6.370;2023-11-21T01:57:03;45.20;;;41.60;;
52508;SDS011;38420;53.150;6.370;2023-11-21T01:59:35;45.63;;;40.85;;
52508;SDS011;38420;53.150;6.370;2023-11-21T02:02:10;48.75;;;43.88;;
52508;SDS011;38420;53.150;6.370;2023-11-21T02:04:36;42.85;;;39.17;;
52508;SDS011;38420;53.150;6.370;2023-11-21T02:07:02;46.05;;;41.65;;
52508;SDS011;38420;53.150;6.370;2023-11-21T02:09:31;43.35;;;39.30;;
52508;SDS011;38420;53.150;6.370;2023-11-21T02:11:58;46.40;;;41.22;;
52508;SDS011;38420;53.150;6.370;2023-11-21T02:14:25;45.30;;;40.90;;
52508;SDS011;38420;53.150;6.370;2023-11-21T02:16:53;43.05;;;39.30;;
52508;SDS011;38420;53.150;6.370;2023-11-21T02:19:21;43.75;;;39.55;;
52508;SDS011;38420;53.150;6.370;2023-11-21T02:21:54;46.28;;;41.38;;
52508;SDS011;38420;53.150;6.370;2023-11-21T02:24:28;43.50;;;38.88;;
52508;SDS011;38420;53.150;6.370;2023-11-21T02:26:54;45.53;;;40.80;;
52508;SDS011;38420;53.150;6.370;2023-11-21T02:29:20;44.65;;;38.00;;
52508;SDS011;38420;53.150;6.370;2023-11-21T02:31:53;43.00;;;37.35;;
52508;SDS011;38420;53.150;6.370;2023-11-21T02:34:20;43.22;;;36.22;;
52508;SDS011;38420;53.150;6.370;2023-11-21T02:36:46;47.80;;;35.85;;
52508;SDS011;38420;53.150;6.370;2023-11-21T02:39:14;43.17;;;36.97;;
52508;SDS011;38420;53.150;6.370;2023-11-21T02:41:41;41.25;;;36.92;;
52508;SDS011;38420;53.150;6.370;2023-11-21T02:44:07;42.90;;;38.83;;
52508;SDS011;38420;53.150;6.370;2023-11-21T02:46:34;47.63;;;37.35;;
52508;SDS011;38420;53.150;6.370;2023-11-21T02:49:01;46.85;;;37.65;;
52508;SDS011;38420;53.150;6.370;2023-11-21T02:51:27;46.83;;;37.20;;
52508;SDS011;38420;53.150;6.370;2023-11-21T02:53:53;39.88;;;34.97;;
52508;SDS011;38420;53.150;6.370;2023-11-21T02:56:19;41.25;;;34.38;;
52508;SDS011;38420;53.150;6.370;2023-11-21T02:58:45;47.33;;;36.88;;
52508;SDS011;38420;53.150;6.370;2023-11-21T03:01:11;41.50;;;37.05;;
52508;SDS011;38420;53.150;6.370;2023-11-21T03:03:38;47.65;;;33.50;;
52508;SDS011;38420;53.150;6.370;2023-11-21T03:06:05;45.08;;;31.98;;
52508;SDS011;38420;53.150;6.370;2023-11-21T03:08:31;46.67;;;32.58;;
52508;SDS011;38420;53.150;6.370;2023-11-21T03:10:57;42.08;;;31.45;;
52508;SDS011;38420;53.150;6.370;2023-11-21T03:13:23;43.05;;;29.70;;
52508;SDS011;38420;53.150;6.370;2023-11-21T03:15:49;43.17;;;31.15;;
52508;SDS011;38420;53.150;6.370;2023-11-21T03:18:15;42.88;;;29.50;;
52508;SDS011;38420;53.150;6.370;2023-11-21T03:20:41;39.53;;;29.60;;
52508;SDS011;38420;53.150;6.370;2023-11-21T03:23:11;44.93;;;30.73;;
52508;SDS011;38420;53.150;6.370;2023-11-21T03:25:37;40.45;;;29.38;;
52508;SDS011;38420;53.150;6.370;2023-11-21T03:28:03;45.35;;;30.10;;
52508;SDS011;38420;53.150;6.370;2023-11-21T03:30:29;40.50;;;31.13;;
52508;SDS011;38420;53.150;6.370;2023-11-21T03:32:55;44.80;;;28.48;;
52508;SDS011;38420;53.150;6.370;2023-11-21T03:35:21;45.33;;;28.73;;
52508;SDS011;38420;53.150;6.370;2023-11-21T03:37:47;49.83;;;30.23;;
52508;SDS011;38420;53.150;6.370;2023-11-21T03:40:13;59.22;;;33.40;;
52508;SDS011;38420;53.150;6.370;2023-11-21T03:42:39;48.28;;;34.90;;
52508;SDS011;38420;53.150;6.370;2023-11-21T03:45:05;41.03;;;32.00;;
52508;SDS011;38420;53.150;6.370;2023-11-21T03:47:31;42.65;;;32.78;;
52508;SDS011;38420;53.150;6.370;2023-11-21T03:49:57;52.78;;;33.80;;
52508;SDS011;38420;53.150;6.370;2023-11-21T03:52:23;48.20;;;33.22;;
52508;SDS011;38420;53.150;6.370;2023-11-21T03:54:49;52.33;;;33.55;;
52508;SDS011;38420;53.150;6.370;2023-11-21T03:57:15;44.10;;;32.28;;
52508;SDS011;38420;53.150;6.370;2023-11-21T03:59:41;43.30;;;34.40;;
52508;SDS011;38420;53.150;6.370;2023-11-21T04:02:07;38.97;;;31.35;;
52508;SDS011;38420;53.150;6.370;2023-11-21T04:04:33;50.40;;;33.17;;
52508;SDS011;38420;53.150;6.370;2023-11-21T04:06:59;51.15;;;32.88;;
52508;SDS011;38420;53.150;6.370;2023-11-21T04:09:25;45.97;;;31.98;;
52508;SDS011;38420;53.150;6.370;2023-11-21T04:11:51;46.08;;;34.47;;
52508;SDS011;38420;53.150;6.370;2023-11-21T04:14:17;52.60;;;34.38;;
52508;SDS011;38420;53.150;6.370;2023-11-21T04:16:43;48.13;;;33.63;;
52508;SDS011;38420;53.150;6.370;2023-11-21T04:19:08;45.53;;;32.60;;
52508;SDS011;38420;53.150;6.370;2023-11-21T04:21:35;53.90;;;36.03;;
52508;SDS011;38420;53.150;6.370;2023-11-21T04:24:04;46.70;;;35.13;;
52508;SDS011;38420;53.150;6.370;2023-11-21T04:26:31;51.17;;;35.70;;
52508;SDS011;38420;53.150;6.370;2023-11-21T04:28:56;48.20;;;36.47;;
52508;SDS011;38420;53.150;6.370;2023-11-21T04:31:22;53.40;;;35.42;;
52508;SDS011;38420;53.150;6.370;2023-11-21T04:33:48;58.65;;;35.50;;
52508;SDS011;38420;53.150;6.370;2023-11-21T04:36:14;46.78;;;35.90;;
52508;SDS011;38420;53.150;6.370;2023-11-21T04:38:39;43.33;;;32.90;;
52508;SDS011;38420;53.150;6.370;2023-11-21T04:41:06;45.33;;;31.48;;
52508;SDS011;38420;53.150;6.370;2023-11-21T04:43:32;54.08;;;34.70;;
52508;SDS011;38420;53.150;6.370;2023-11-21T04:45:57;50.13;;;31.50;;
52508;SDS011;38420;53.150;6.370;2023-11-21T04:48:23;45.20;;;34.08;;
52508;SDS011;38420;53.150;6.370;2023-11-21T04:50:48;46.90;;;37.58;;
52508;SDS011;38420;53.150;6.370;2023-11-21T04:53:14;49.42;;;37.88;;
52508;SDS011;38420;53.150;6.370;2023-11-21T04:55:40;53.67;;;37.35;;
52508;SDS011;38420;53.150;6.370;2023-11-21T04:58:06;55.08;;;37.33;;
52508;SDS011;38420;53.150;6.370;2023-11-21T05:00:33;61.30;;;40.40;;
52508;SDS011;38420;53.150;6.370;2023-11-21T05:02:59;43.80;;;38.95;;
52508;SDS011;38420;53.150;6.370;2023-11-21T05:05:26;50.40;;;41.97;;
52508;SDS011;38420;53.150;6.370;2023-11-21T05:07:52;57.42;;;43.88;;
52508;SDS011;38420;53.150;6.370;2023-11-21T05:10:18;53.70;;;44.67;;
52508;SDS011;38420;53.150;6.370;2023-11-21T05:12:44;52.13;;;46.83;;
52508;SDS011;38420;53.150;6.370;2023-11-21T05:15:13;54.80;;;49.45;;
52508;SDS011;38420;53.150;6.370;2023-11-21T05:17:40;56.47;;;50.70;;
52508;SDS011;38420;53.150;6.370;2023-11-21T05:20:13;59.10;;;53.17;;
52508;SDS011;38420;53.150;6.370;2023-11-21T05:22:43;56.83;;;50.85;;
52508;SDS011;38420;53.150;6.370;2023-11-21T05:25:09;53.60;;;48.15;;
52508;SDS011;38420;53.150;6.370;2023-11-21T05:27:36;51.53;;;46.33;;
52508;SDS011;38420;53.150;6.370;2023-11-21T05:30:02;49.28;;;44.45;;
52508;SDS011;38420;53.150;6.370;2023-11-21T05:32:36;45.03;;;40.55;;
52508;SDS011;38420;53.150;6.370;2023-11-21T05:35:02;42.28;;;38.05;;
52508;SDS011;38420;53.150;6.370;2023-11-21T05:37:28;41.30;;;35.05;;
52508;SDS011;38420;53.150;6.370;2023-11-21T05:39:55;38.08;;;32.33;;
52508;SDS011;38420;53.150;6.370;2023-11-21T05:42:24;39.15;;;34.35;;
52508;SDS011;38420;53.150;6.370;2023-11-21T05:44:50;40.35;;;33.28;;
52508;SDS011;38420;53.150;6.370;2023-11-21T05:47:16;44.97;;;37.53;;
52508;SDS011;38420;53.150;6.370;2023-11-21T05:49:42;42.33;;;37.83;;
52508;SDS011;38420;53.150;6.370;2023-11-21T05:52:07;41.60;;;37.28;;
52508;SDS011;38420;53.150;6.370;2023-11-21T05:54:33;40.88;;;36.35;;
52508;SDS011;38420;53.150;6.370;2023-11-21T05:56:59;46.35;;;37.90;;
52508;SDS011;38420;53.150;6.370;2023-11-21T05:59:24;42.20;;;36.35;;
52508;SDS011;38420;53.150;6.370;2023-11-21T06:01:50;42.35;;;37.53;;
52508;SDS011;38420;53.150;6.370;2023-11-21T06:04:16;41.78;;;34.10;;
52508;SDS011;38420;53.150;6.370;2023-11-21T06:06:43;45.58;;;36.58;;
52508;SDS011;38420;53.150;6.370;2023-11-21T06:09:09;44.38;;;34.95;;
52508;SDS011;38420;53.150;6.370;2023-11-21T06:11:35;42.38;;;34.58;;
52508;SDS011;38420;53.150;6.370;2023-11-21T06:14:01;44.53;;;32.00;;
52508;SDS011;38420;53.150;6.370;2023-11-21T06:16:27;41.25;;;31.77;;
52508;SDS011;38420;53.150;6.370;2023-11-21T06:18:53;38.67;;;30.70;;
52508;SDS011;38420;53.150;6.370;2023-11-21T06:21:19;41.05;;;30.77;;
52508;SDS011;38420;53.150;6.370;2023-11-21T06:23:44;43.90;;;30.50;;
52508;SDS011;38420;53.150;6.370;2023-11-21T06:26:10;38.35;;;29.27;;
52508;SDS011;38420;53.150;6.370;2023-11-21T06:28:36;44.40;;;32.00;;
52508;SDS011;38420;53.150;6.370;2023-11-21T06:31:01;48.63;;;32.20;;
52508;SDS011;38420;53.150;6.370;2023-11-21T06:33:33;40.72;;;32.83;;
52508;SDS011;38420;53.150;6.370;2023-11-21T06:35:59;42.70;;;35.47;;
52508;SDS011;38420;53.150;6.370;2023-11-21T06:38:28;49.40;;;36.10;;
52508;SDS011;38420;53.150;6.370;2023-11-21T06:40:58;40.88;;;36.13;;
52508;SDS011;38420;53.150;6.370;2023-11-21T06:43:27;47.95;;;35.78;;
52508;SDS011;38420;53.150;6.370;2023-11-21T06:45:52;44.75;;;35.15;;
52508;SDS011;38420;53.150;6.370;2023-11-21T06:48:19;48.53;;;36.83;;
52508;SDS011;38420;53.150;6.370;2023-11-21T06:50:45;49.33;;;36.13;;
52508;SDS011;38420;53.150;6.370;2023-11-21T06:53:11;39.00;;;32.75;;
52508;SDS011;38420;53.150;6.370;2023-11-21T06:55:38;46.97;;;33.03;;
52508;SDS011;38420;53.150;6.370;2023-11-21T06:58:04;44.33;;;33.83;;
52508;SDS011;38420;53.150;6.370;2023-11-21T07:00:30;46.17;;;32.85;;
52508;SDS011;38420;53.150;6.370;2023-11-21T07:02:56;44.70;;;32.25;;
52508;SDS011;38420;53.150;6.370;2023-11-21T07:05:21;42.92;;;30.95;;
52508;SDS011;38420;53.150;6.370;2023-11-21T07:07:48;44.38;;;33.33;;
52508;SDS011;38420;53.150;6.370;2023-11-21T07:10:15;33.08;;;22.15;;
52508;SDS011;38420;53.150;6.370;2023-11-21T07:12:42;28.25;;;19.45;;
52508;SDS011;38420;53.150;6.370;2023-11-21T07:15:07;23.48;;;18.88;;
52508;SDS011;38420;53.150;6.370;2023-11-21T07:17:37;30.42;;;18.65;;
52508;SDS011;38420;53.150;6.370;2023-11-21T07:20:03;27.63;;;17.25;;
52508;SDS011;38420;53.150;6.370;2023-11-21T07:22:29;24.85;;;18.50;;
52508;SDS011;38420;53.150;6.370;2023-11-21T07:24:55;25.20;;;19.60;;
52508;SDS011;38420;53.150;6.370;2023-11-21T07:27:23;31.60;;;21.08;;
52508;SDS011;38420;53.150;6.370;2023-11-21T07:29:49;23.90;;;19.60;;
52508;SDS011;38420;53.150;6.370;2023-11-21T07:32:15;26.83;;;19.15;;
52508;SDS011;38420;53.150;6.370;2023-11-21T07:34:41;26.25;;;17.42;;
52508;SDS011;38420;53.150;6.370;2023-11-21T07:37:07;26.63;;;17.17;;
52508;SDS011;38420;53.150;6.370;2023-11-21T07:39:34;26.45;;;16.30;;
52508;SDS011;38420;53.150;6.370;2023-11-21T07:42:01;27.48;;;17.05;;
52508;SDS011;38420;53.150;6.370;2023-11-21T07:44:27;27.65;;;18.05;;
52508;SDS011;38420;53.150;6.370;2023-11-21T07:46:53;29.15;;;17.90;;
52508;SDS011;38420;53.150;6.370;2023-11-21T07:49:22;26.80;;;16.65;;
52508;SDS011;38420;53.150;6.370;2023-11-21T07:51:51;35.92;;;20.45;;
52508;SDS011;38420;53.150;6.370;2023-11-21T07:54:17;39.13;;;21.40;;
52508;SDS011;38420;53.150;6.370;2023-11-21T07:56:43;38.28;;;22.23;;
52508;SDS011;38420;53.150;6.370;2023-11-21T07:59:10;37.50;;;22.42;;
52508;SDS011;38420;53.150;6.370;2023-11-21T08:01:35;39.67;;;21.67;;
52508;SDS011;38420;53.150;6.370;2023-11-21T08:04:01;35.40;;;22.58;;
52508;SDS011;38420;53.150;6.370;2023-11-21T08:06:29;39.30;;;21.67;;
52508;SDS011;38420;53.150;6.370;2023-11-21T08:08:55;35.70;;;22.58;;
52508;SDS011;38420;53.150;6.370;2023-11-21T08:11:21;35.95;;;20.25;;
52508;SDS011;38420;53.150;6.370;2023-11-21T08:13:47;34.13;;;19.67;;
52508;SDS011;38420;53.150;6.370;2023-11-21T08:16:13;31.08;;;18.38;;
52508;SDS011;38420;53.150;6.370;2023-11-21T08:18:39;33.55;;;20.10;;
52508;SDS011;38420;53.150;6.370;2023-11-21T08:21:06;39.70;;;21.45;;
52508;SDS011;38420;53.150;6.370;2023-11-21T08:23:33;42.33;;;22.95;;
52508;SDS011;38420;53.150;6.370;2023-11-21T08:25:59;37.15;;;21.98;;
52508;SDS011;38420;53.150;6.370;2023-11-21T08:28:25;37.78;;;21.50;;
52508;SDS011;38420;53.150;6.370;2023-11-21T08:30:54;40.03;;;22.80;;
52508;SDS011;38420;53.150;6.370;2023-11-21T08:33:19;32.65;;;20.13;;
52508;SDS011;38420;53.150;6.370;2023-11-21T08:35:45;32.15;;;20.58;;
52508;SDS011;38420;53.150;6.370;2023-11-21T08:38:11;37.88;;;22.73;;
52508;SDS011;38420;53.150;6.370;2023-11-21T08:40:37;33.92;;;21.75;;
52508;SDS011;38420;53.150;6.370;2023-11-21T08:43:03;34.30;;;20.65;;
52508;SDS011;38420;53.150;6.370;2023-11-21T08:45:32;36.72;;;23.02;;
52508;SDS011;38420;53.150;6.370;2023-11-21T08:48:01;39.20;;;21.50;;
52508;SDS011;38420;53.150;6.370;2023-11-21T08:50:27;34.75;;;21.23;;
52508;SDS011;38420;53.150;6.370;2023-11-21T08:52:53;34.28;;;20.90;;
52508;SDS011;38420;53.150;6.370;2023-11-21T08:55:19;36.78;;;23.10;;
52508;SDS011;38420;53.150;6.370;2023-11-21T08:57:45;35.88;;;21.83;;
52508;SDS011;38420;53.150;6.370;2023-11-21T09:00:14;34.88;;;21.17;;
52508;SDS011;38420;53.150;6.370;2023-11-21T09:02:42;31.83;;;20.85;;
52508;SDS011;38420;53.150;6.370;2023-11-21T09:05:09;33.20;;;20.95;;
52508;SDS011;38420;53.150;6.370;2023-11-21T09:07:35;37.92;;;20.58;;
52508;SDS011;38420;53.150;6.370;2023-11-21T09:10:05;34.83;;;20.67;;
52508;SDS011;38420;53.150;6.370;2023-11-21T09:12:33;34.13;;;20.67;;
52508;SDS011;38420;53.150;6.370;2023-11-21T09:15:02;34.28;;;21.63;;
52508;SDS011;38420;53.150;6.370;2023-11-21T09:17:29;32.88;;;20.90;;
52508;SDS011;38420;53.150;6.370;2023-11-21T09:19:55;36.67;;;20.17;;
52508;SDS011;38420;53.150;6.370;2023-11-21T09:22:22;31.38;;;21.08;;
52508;SDS011;38420;53.150;6.370;2023-11-21T09:24:49;35.38;;;19.42;;
52508;SDS011;38420;53.150;6.370;2023-11-21T09:27:15;33.97;;;19.40;;
52508;SDS011;38420;53.150;6.370;2023-11-21T09:29:42;26.85;;;18.73;;
52508;SDS011;38420;53.150;6.370;2023-11-21T09:32:08;27.05;;;17.90;;
52508;SDS011;38420;53.150;6.370;2023-11-21T09:34:37;27.40;;;17.92;;
52508;SDS011;38420;53.150;6.370;2023-11-21T09:37:04;26.63;;;17.13;;
52508;SDS011;38420;53.150;6.370;2023-11-21T09:39:31;28.17;;;17.42;;
52508;SDS011;38420;53.150;6.370;2023-11-21T09:42:04;26.20;;;17.27;;
52508;SDS011;38420;53.150;6.370;2023-11-21T09:45:03;25.63;;;17.08;;
52508;SDS011;38420;53.150;6.370;2023-11-21T09:47:38;22.80;;;15.10;;
52508;SDS011;38420;53.150;6.370;2023-11-21T09:50:04;23.60;;;15.27;;
52508;SDS011;38420;53.150;6.370;2023-11-21T09:52:33;20.40;;;13.35;;
52508;SDS011;38420;53.150;6.370;2023-11-21T09:55:27;20.75;;;13.40;;
52508;SDS011;38420;53.150;6.370;2023-11-21T09:58:00;22.60;;;14.82;;
52508;SDS011;38420;53.150;6.370;2023-11-21T10:00:28;24.42;;;14.52;;
52508;SDS011;38420;53.150;6.370;2023-11-21T10:02:58;24.63;;;14.43;;
52508;SDS011;38420;53.150;6.370;2023-11-21T10:05:24;22.98;;;14.32;;
52508;SDS011;38420;53.150;6.370;2023-11-21T10:07:50;21.27;;;14.20;;
52508;SDS011;38420;53.150;6.370;2023-11-21T10:10:18;25.77;;;14.70;;
52508;SDS011;38420;53.150;6.370;2023-11-21T10:12:47;25.75;;;14.35;;
52508;SDS011;38420;53.150;6.370;2023-11-21T10:15:18;23.90;;;14.68;;
52508;SDS011;38420;53.150;6.370;2023-11-21T10:17:46;21.80;;;13.77;;
52508;SDS011;38420;53.150;6.370;2023-11-21T10:20:15;22.30;;;13.60;;
52508;SDS011;38420;53.150;6.370;2023-11-21T10:22:41;22.55;;;12.07;;
52508;SDS011;38420;53.150;6.370;2023-11-21T10:25:11;21.75;;;13.05;;
52508;SDS011;38420;53.150;6.370;2023-11-21T10:27:39;27.48;;;12.52;;
52508;SDS011;38420;53.150;6.370;2023-11-21T10:30:09;16.83;;;10.70;;
52508;SDS011;38420;53.150;6.370;2023-11-21T10:32:40;20.05;;;11.65;;
52508;SDS011;38420;53.150;6.370;2023-11-21T10:35:07;19.90;;;11.73;;
52508;SDS011;38420;53.150;6.370;2023-11-21T10:37:35;16.52;;;9.98;;
52508;SDS011;38420;53.150;6.370;2023-11-21T10:40:05;17.73;;;10.52;;
52508;SDS011;38420;53.150;6.370;2023-11-21T10:42:37;16.77;;;10.18;;
52508;SDS011;38420;53.150;6.370;2023-11-21T10:45:09;17.15;;;10.25;;
52508;SDS011;38420;53.150;6.370;2023-11-21T10:47:41;17.98;;;9.75;;
52508;SDS011;38420;53.150;6.370;2023-11-21T10:50:09;14.55;;;9.05;;
52508;SDS011;38420;53.150;6.370;2023-11-21T10:52:39;14.10;;;9.20;;
52508;SDS011;38420;53.150;6.370;2023-11-21T10:55:17;13.27;;;8.38;;
52508;SDS011;38420;53.150;6.370;2023-11-21T10:57:50;16.17;;;9.23;;
52508;SDS011;38420;53.150;6.370;2023-11-21T11:00:18;12.68;;;7.55;;
52508;SDS011;38420;53.150;6.370;2023-11-21T11:02:51;14.50;;;7.40;;
52508;SDS011;38420;53.150;6.370;2023-11-21T11:05:19;12.88;;;8.15;;
52508;SDS011;38420;53.150;6.370;2023-11-21T11:07:47;14.35;;;7.32;;
52508;SDS011;38420;53.150;6.370;2023-11-21T11:10:20;9.60;;;5.90;;
52508;SDS011;38420;53.150;6.370;2023-11-21T11:12:48;11.55;;;6.60;;
52508;SDS011;38420;53.150;6.370;2023-11-21T11:15:15;11.35;;;6.63;;
52508;SDS011;38420;53.150;6.370;2023-11-21T11:17:41;12.07;;;6.25;;
52508;SDS011;38420;53.150;6.370;2023-11-21T11:20:10;11.88;;;6.72;;
52508;SDS011;38420;53.150;6.370;2023-11-21T11:22:41;13.00;;;7.70;;
52508;SDS011;38420;53.150;6.370;2023-11-21T11:25:30;15.55;;;8.07;;
52508;SDS011;38420;53.150;6.370;2023-11-21T11:28:14;11.30;;;6.78;;
52508;SDS011;38420;53.150;6.370;2023-11-21T11:33:41;12.77;;;7.90;;
52508;SDS011;38420;53.150;6.370;2023-11-21T11:39:30;14.02;;;7.65;;
52508;SDS011;38420;53.150;6.370;2023-11-21T11:42:01;10.90;;;7.30;;
52508;SDS011;38420;53.150;6.370;2023-11-21T11:52:35;11.18;;;6.30;;
52508;SDS011;38420;53.150;6.370;2023-11-21T11:55:02;11.43;;;5.95;;
52508;SDS011;38420;53.150;6.370;2023-11-21T11:57:33;8.90;;;5.82;;
52508;SDS011;38420;53.150;6.370;2023-11-21T12:02:44;11.57;;;5.35;;
52508;SDS011;38420;53.150;6.370;2023-11-21T12:05:28;8.18;;;5.35;;
52508;SDS011;38420;53.150;6.370;2023-11-21T12:07:59;12.30;;;6.60;;
52508;SDS011;38420;53.150;6.370;2023-11-21T12:10:27;10.82;;;6.13;;
52508;SDS011;38420;53.150;6.370;2023-11-21T12:12:57;8.52;;;5.78;;
52508;SDS011;38420;53.150;6.370;2023-11-21T12:15:24;8.45;;;5.28;;
52508;SDS011;38420;53.150;6.370;2023-11-21T12:17:51;10.07;;;5.70;;
52508;SDS011;38420;53.150;6.370;2023-11-21T12:20:24;10.45;;;6.13;;
52508;SDS011;38420;53.150;6.370;2023-11-21T12:25:18;9.82;;;6.55;;
52508;SDS011;38420;53.150;6.370;2023-11-21T12:27:46;9.50;;;6.10;;
52508;SDS011;38420;53.150;6.370;2023-11-21T12:30:14;10.18;;;6.10;;
52508;SDS011;38420;53.150;6.370;2023-11-21T12:32:48;8.55;;;5.65;;
52508;SDS011;38420;53.150;6.370;2023-11-21T12:35:22;8.63;;;5.93;;
52508;SDS011;38420;53.150;6.370;2023-11-21T12:37:50;10.85;;;6.07;;
52508;SDS011;38420;53.150;6.370;2023-11-21T12:40:17;11.68;;;6.00;;
52508;SDS011;38420;53.150;6.370;2023-11-21T12:42:43;6.75;;;4.47;;
52508;SDS011;38420;53.150;6.370;2023-11-21T12:47:43;8.55;;;5.30;;
52508;SDS011;38420;53.150;6.370;2023-11-21T12:50:19;9.18;;;4.63;;
52508;SDS011;38420;53.150;6.370;2023-11-21T12:52:51;7.20;;;4.20;;
52508;SDS011;38420;53.150;6.370;2023-11-21T12:55:21;10.75;;;4.85;;
52508;SDS011;38420;53.150;6.370;2023-11-21T12:57:48;7.32;;;5.18;;
52508;SDS011;38420;53.150;6.370;2023-11-21T13:00:17;8.57;;;5.18;;
52508;SDS011;38420;53.150;6.370;2023-11-21T13:02:56;7.18;;;4.25;;
52508;SDS011;38420;53.150;6.370;2023-11-21T13:05:30;6.47;;;3.97;;
52508;SDS011;38420;53.150;6.370;2023-11-21T13:07:57;8.45;;;4.40;;
52508;SDS011;38420;53.150;6.370;2023-11-21T13:10:27;7.90;;;4.70;;
52508;SDS011;38420;53.150;6.370;2023-11-21T13:13:06;9.65;;;5.25;;
52508;SDS011;38420;53.150;6.370;2023-11-21T13:15:34;9.73;;;4.97;;
52508;SDS011;38420;53.150;6.370;2023-11-21T13:18:03;8.40;;;4.95;;
52508;SDS011;38420;53.150;6.370;2023-11-21T13:20:29;7.97;;;4.63;;
52508;SDS011;38420;53.150;6.370;2023-11-21T13:22:55;10.05;;;4.78;;
52508;SDS011;38420;53.150;6.370;2023-11-21T13:25:26;10.73;;;6.47;;
52508;SDS011;38420;53.150;6.370;2023-11-21T13:27:55;12.02;;;6.47;;
52508;SDS011;38420;53.150;6.370;2023-11-21T13:30:21;11.20;;;6.57;;
52508;SDS011;38420;53.150;6.370;2023-11-21T13:32:52;9.68;;;6.80;;
52508;SDS011;38420;53.150;6.370;2023-11-21T13:35:22;8.32;;;5.20;;
52508;SDS011;38420;53.150;6.370;2023-11-21T13:37:56;12.55;;;6.95;;
52508;SDS011;38420;53.150;6.370;2023-11-21T13:40:25;9.73;;;6.70;;
52508;SDS011;38420;53.150;6.370;2023-11-21T13:42:52;13.38;;;7.47;;
52508;SDS011;38420;53.150;6.370;2023-11-21T13:45:22;11.23;;;6.53;;
52508;SDS011;38420;53.150;6.370;2023-11-21T13:47:48;12.35;;;7.07;;
52508;SDS011;38420;53.150;6.370;2023-11-21T13:50:17;11.30;;;6.40;;
52508;SDS011;38420;53.150;6.370;2023-11-21T13:55:14;11.40;;;7.00;;
52508;SDS011;38420;53.150;6.370;2023-11-21T13:57:41;9.63;;;6.10;;
52508;SDS011;38420;53.150;6.370;2023-11-21T14:00:14;12.18;;;7.53;;
52508;SDS011;38420;53.150;6.370;2023-11-21T14:03:01;11.77;;;6.85;;
52508;SDS011;38420;53.150;6.370;2023-11-21T14:05:31;10.85;;;6.82;;
52508;SDS011;38420;53.150;6.370;2023-11-21T14:07:59;10.65;;;5.95;;
52508;SDS011;38420;53.150;6.370;2023-11-21T14:10:32;13.27;;;6.78;;
52508;SDS011;38420;53.150;6.370;2023-11-21T14:13:05;9.57;;;6.18;;
52508;SDS011;38420;53.150;6.370;2023-11-21T14:15:31;10.60;;;6.25;;
52508;SDS011;38420;53.150;6.370;2023-11-21T14:17:58;11.73;;;6.50;;
52508;SDS011;38420;53.150;6.370;2023-11-21T14:20:32;10.13;;;6.32;;
52508;SDS011;38420;53.150;6.370;2023-11-21T14:23:01;8.80;;;5.85;;
52508;SDS011;38420;53.150;6.370;2023-11-21T14:25:27;10.05;;;6.28;;
52508;SDS011;38420;53.150;6.370;2023-11-21T14:27:53;8.80;;;6.10;;
52508;SDS011;38420;53.150;6.370;2023-11-21T14:30:18;10.32;;;5.65;;
52508;SDS011;38420;53.150;6.370;2023-11-21T14:32:47;10.88;;;5.35;;
52508;SDS011;38420;53.150;6.370;2023-11-21T14:35:13;8.73;;;5.57;;
52508;SDS011;38420;53.150;6.370;2023-11-21T14:37:39;8.13;;;5.40;;
52508;SDS011;38420;53.150;6.370;2023-11-21T14:40:05;8.38;;;5.07;;
52508;SDS011;38420;53.150;6.370;2023-11-21T14:42:33;7.72;;;5.25;;
52508;SDS011;38420;53.150;6.370;2023-11-21T14:44:59;15.70;;;6.20;;
52508;SDS011;38420;53.150;6.370;2023-11-21T14:47:28;8.18;;;4.80;;
52508;SDS011;38420;53.150;6.370;2023-11-21T14:49:54;8.82;;;4.82;;
52508;SDS011;38420;53.150;6.370;2023-11-21T14:52:24;7.50;;;4.85;;
52508;SDS011;38420;53.150;6.370;2023-11-21T14:55:02;9.60;;;4.55;;